createdAt,value
2022-11-08T00:00:01.881Z,0.00
2022-11-08T00:01:01.831Z,0.00
2022-11-08T00:02:01.907Z,0.00
2022-11-08T00:03:01.832Z,0.00
2022-11-08T00:04:01.717Z,0.00
2022-11-08T00:05:01.675Z,0.00
2022-11-08T00:06:01.612Z,0.00
2022-11-08T00:07:01.559Z,0.00
2022-11-08T00:08:01.506Z,0.00
2022-11-08T00:09:01.459Z,0.00
2022-11-08T00:10:01.416Z,0.00
2022-11-08T00:11:01.394Z,0.00
2022-11-08T00:12:01.326Z,0.00
2022-11-08T00:13:01.273Z,0.00
2022-11-08T00:14:01.237Z,0.00
2022-11-08T00:15:01.183Z,0.00
2022-11-08T00:16:01.139Z,0.00
2022-11-08T00:17:01.130Z,0.00
2022-11-08T00:18:01.041Z,0.00
2022-11-08T00:19:00.994Z,0.00
2022-11-08T00:20:00.990Z,0.00
2022-11-08T00:21:00.905Z,0.00
2022-11-08T00:22:00.856Z,0.00
2022-11-08T00:23:00.807Z,0.00
2022-11-08T00:24:00.768Z,0.00
2022-11-08T00:25:00.721Z,0.00
2022-11-08T00:26:00.691Z,0.00
2022-11-08T00:27:00.622Z,0.00
2022-11-08T00:28:00.584Z,0.00
2022-11-08T00:29:00.531Z,0.00
2022-11-08T00:30:00.490Z,0.00
2022-11-08T00:31:00.442Z,0.00
2022-11-08T00:32:00.432Z,0.00
2022-11-08T00:33:00.348Z,0.00
2022-11-08T00:34:00.300Z,0.00
2022-11-08T00:35:00.258Z,0.00
2022-11-08T00:36:00.201Z,0.00
2022-11-08T00:37:00.157Z,0.00
2022-11-08T00:38:00.154Z,0.00
2022-11-08T00:39:00.123Z,0.00
2022-11-08T00:40:00.020Z,0.00
2022-11-08T00:40:59.973Z,0.00
2022-11-08T00:41:59.927Z,0.00
2022-11-08T00:42:59.880Z,0.00
2022-11-08T00:43:59.832Z,0.00
2022-11-08T00:44:59.823Z,0.00
2022-11-08T00:45:59.749Z,0.00
2022-11-08T00:46:59.740Z,0.00
2022-11-08T00:47:59.647Z,0.00
2022-11-08T00:48:59.603Z,0.00
2022-11-08T00:49:59.554Z,0.00
2022-11-08T00:50:59.504Z,0.00
2022-11-08T00:51:59.465Z,0.00
2022-11-08T00:52:59.443Z,0.00
2022-11-08T00:53:59.370Z,0.00
2022-11-08T00:54:59.321Z,0.00
2022-11-08T00:55:59.296Z,0.00
2022-11-08T00:56:59.230Z,0.00
2022-11-08T00:58:00.239Z,0.00
2022-11-08T00:58:59.134Z,0.00
2022-11-08T00:59:59.085Z,0.00
2022-11-08T01:00:59.110Z,0.00
2022-11-08T01:01:59.118Z,0.00
2022-11-08T01:02:58.952Z,0.00
2022-11-08T01:03:58.903Z,0.00
2022-11-08T01:04:58.854Z,0.00
2022-11-08T01:05:58.817Z,0.00
2022-11-08T01:06:58.768Z,0.00
2022-11-08T01:07:58.743Z,0.00
2022-11-08T01:08:58.669Z,0.00
2022-11-08T01:09:58.633Z,0.00
2022-11-08T01:10:58.579Z,0.00
2022-11-08T01:11:58.526Z,0.00
2022-11-08T01:12:58.484Z,0.00
2022-11-08T01:13:58.463Z,0.00
2022-11-08T01:14:58.433Z,0.00
2022-11-08T01:15:58.344Z,0.00
2022-11-08T01:16:58.301Z,0.00
2022-11-08T01:17:58.254Z,0.00
2022-11-08T01:18:58.230Z,0.00
2022-11-08T01:19:58.155Z,0.00
2022-11-08T01:20:58.108Z,0.00
2022-11-08T01:21:58.062Z,0.00
2022-11-08T01:22:58.020Z,0.00
2022-11-08T01:23:57.973Z,0.00
2022-11-08T01:24:57.947Z,0.00
2022-11-08T01:25:57.874Z,0.00
2022-11-08T01:26:57.826Z,0.00
2022-11-08T01:27:57.781Z,0.00
2022-11-08T01:28:57.758Z,0.00
2022-11-08T01:29:57.711Z,0.00
2022-11-08T01:30:57.667Z,0.00
2022-11-08T01:31:57.619Z,0.00
2022-11-08T01:32:57.552Z,0.00
2022-11-08T01:33:57.507Z,0.00
2022-11-08T01:34:57.455Z,0.00
2022-11-08T01:35:57.440Z,0.00
2022-11-08T01:36:57.365Z,0.00
2022-11-08T01:37:57.314Z,0.00
2022-11-08T01:38:57.268Z,0.00
2022-11-08T01:39:57.217Z,0.00
2022-11-08T01:40:57.195Z,0.00
2022-11-08T01:41:57.122Z,0.00
2022-11-08T01:42:57.084Z,0.00
2022-11-08T01:43:57.031Z,0.00
2022-11-08T01:44:56.986Z,0.00
2022-11-08T01:45:56.960Z,0.00
2022-11-08T01:46:56.891Z,0.00
2022-11-08T01:47:56.846Z,0.00
2022-11-08T01:48:56.797Z,0.00
2022-11-08T01:49:56.756Z,0.00
2022-11-08T01:50:56.699Z,0.00
2022-11-08T01:51:56.685Z,0.00
2022-11-08T01:52:56.611Z,0.00
2022-11-08T01:53:56.559Z,0.00
2022-11-08T01:54:56.518Z,0.00
2022-11-08T01:55:56.465Z,0.00
2022-11-08T01:56:56.427Z,0.00
2022-11-08T01:57:56.411Z,0.00
2022-11-08T01:58:56.329Z,0.00
2022-11-08T01:59:56.274Z,0.00
2022-11-08T02:00:56.287Z,0.00
2022-11-08T02:01:56.317Z,0.00
2022-11-08T02:02:56.138Z,0.00
2022-11-08T02:03:56.129Z,0.00
2022-11-08T02:04:56.046Z,0.00
2022-11-08T02:05:55.995Z,0.00
2022-11-08T02:06:55.951Z,0.00
2022-11-08T02:07:55.904Z,0.00
2022-11-08T02:08:55.878Z,0.00
2022-11-08T02:09:55.811Z,0.00
2022-11-08T02:10:55.761Z,0.00
2022-11-08T02:11:55.711Z,0.00
2022-11-08T02:12:55.701Z,0.00
2022-11-08T02:13:55.645Z,0.00
2022-11-08T02:14:55.578Z,0.00
2022-11-08T02:15:55.522Z,0.00
2022-11-08T02:16:55.477Z,0.00
2022-11-08T02:17:55.433Z,0.00
2022-11-08T02:18:55.419Z,0.00
2022-11-08T02:19:55.336Z,0.00
2022-11-08T02:20:55.291Z,0.00
2022-11-08T02:21:55.244Z,0.00
2022-11-08T02:22:55.198Z,0.00
2022-11-08T02:23:55.155Z,0.00
2022-11-08T02:24:55.134Z,0.00
2022-11-08T02:25:55.059Z,0.00
2022-11-08T02:26:55.051Z,0.00
2022-11-08T02:27:54.962Z,0.00
2022-11-08T02:28:54.944Z,0.00
2022-11-08T02:29:54.871Z,0.00
2022-11-08T02:30:54.817Z,0.00
2022-11-08T02:31:54.803Z,0.00
2022-11-08T02:32:54.730Z,0.00
2022-11-08T02:34:04.195Z,0.00
2022-11-08T02:34:54.655Z,0.00
2022-11-08T02:35:54.589Z,0.00
2022-11-08T02:36:54.541Z,0.00
2022-11-08T02:37:54.527Z,0.00
2022-11-08T02:38:54.446Z,0.00
2022-11-08T02:39:54.398Z,0.00
2022-11-08T02:40:54.350Z,0.00
2022-11-08T02:41:54.330Z,0.00
2022-11-08T02:42:54.257Z,0.00
2022-11-08T02:43:54.232Z,0.00
2022-11-08T02:44:54.164Z,0.00
2022-11-08T02:45:54.120Z,0.00
2022-11-08T02:46:54.069Z,0.00
2022-11-08T02:47:54.048Z,0.00
2022-11-08T02:48:53.973Z,0.00
2022-11-08T02:49:53.927Z,0.00
2022-11-08T02:50:53.900Z,0.00
2022-11-08T02:51:53.835Z,0.00
2022-11-08T02:52:53.785Z,0.00
2022-11-08T02:53:53.745Z,0.00
2022-11-08T02:54:53.689Z,0.00
2022-11-08T02:55:53.644Z,0.00
2022-11-08T02:56:53.621Z,0.00
2022-11-08T02:57:53.550Z,0.00
2022-11-08T02:58:53.504Z,0.00
2022-11-08T02:59:53.457Z,0.00
2022-11-08T03:00:53.491Z,0.00
2022-11-08T03:01:53.489Z,0.00
2022-11-08T03:02:53.418Z,0.00
2022-11-08T03:03:53.266Z,0.00
2022-11-08T03:04:53.224Z,0.00
2022-11-08T03:05:53.173Z,0.00
2022-11-08T03:06:53.140Z,0.00
2022-11-08T03:07:53.084Z,0.00
2022-11-08T03:08:53.066Z,0.00
2022-11-08T03:09:52.984Z,0.00
2022-11-08T03:10:52.943Z,0.00
2022-11-08T03:11:52.891Z,0.00
2022-11-08T03:12:52.851Z,0.00
2022-11-08T03:13:52.822Z,0.00
2022-11-08T03:14:52.757Z,0.00
2022-11-08T03:15:52.707Z,0.00
2022-11-08T03:16:52.660Z,0.00
2022-11-08T03:17:52.614Z,0.00
2022-11-08T03:18:52.583Z,0.00
2022-11-08T03:19:52.519Z,0.00
2022-11-08T03:20:52.470Z,0.00
2022-11-08T03:21:52.423Z,0.00
2022-11-08T03:22:52.374Z,0.00
2022-11-08T03:23:52.341Z,0.00
2022-11-08T03:24:52.307Z,0.00
2022-11-08T03:25:52.250Z,0.00
2022-11-08T03:26:52.189Z,0.00
2022-11-08T03:27:52.149Z,0.00
2022-11-08T03:28:52.123Z,0.00
2022-11-08T03:29:52.057Z,0.00
2022-11-08T03:30:51.996Z,0.00
2022-11-08T03:31:51.976Z,0.00
2022-11-08T03:32:51.903Z,0.00
2022-11-08T03:33:51.860Z,0.00
2022-11-08T03:34:51.809Z,0.00
2022-11-08T03:35:51.789Z,0.00
2022-11-08T03:36:51.723Z,0.00
2022-11-08T03:37:51.675Z,0.00
2022-11-08T03:38:51.628Z,0.00
2022-11-08T03:39:51.574Z,0.00
2022-11-08T03:40:51.525Z,0.00
2022-11-08T03:41:51.547Z,0.00
2022-11-08T03:42:51.432Z,0.00
2022-11-08T03:43:51.385Z,0.00
2022-11-08T03:44:51.344Z,0.00
2022-11-08T03:45:51.290Z,0.00
2022-11-08T03:46:51.248Z,0.00
2022-11-08T03:47:51.228Z,0.00
2022-11-08T03:48:51.158Z,0.00
2022-11-08T03:49:51.103Z,0.00
2022-11-08T03:50:51.056Z,0.00
2022-11-08T03:51:51.016Z,0.00
2022-11-08T03:52:50.999Z,0.00
2022-11-08T03:53:50.918Z,0.00
2022-11-08T03:54:50.890Z,0.00
2022-11-08T03:55:50.824Z,0.00
2022-11-08T03:56:50.776Z,0.00
2022-11-08T03:57:50.756Z,0.00
2022-11-08T03:58:50.684Z,0.00
2022-11-08T03:59:50.633Z,0.00
2022-11-08T04:00:50.617Z,0.00
2022-11-08T04:01:50.783Z,0.00
2022-11-08T04:02:50.491Z,0.00
2022-11-08T04:03:50.446Z,0.00
2022-11-08T04:04:50.396Z,0.00
2022-11-08T04:05:50.353Z,0.00
2022-11-08T04:06:50.303Z,0.00
2022-11-08T04:07:50.283Z,0.00
2022-11-08T04:08:50.208Z,0.00
2022-11-08T04:09:50.161Z,0.00
2022-11-08T04:10:50.115Z,0.00
2022-11-08T04:11:50.065Z,0.00
2022-11-08T04:12:50.021Z,0.00
2022-11-08T04:13:49.995Z,0.00
2022-11-08T04:14:49.923Z,0.00
2022-11-08T04:15:49.938Z,0.00
2022-11-08T04:16:49.959Z,0.00
2022-11-08T04:17:49.796Z,0.00
2022-11-08T04:18:49.735Z,0.00
2022-11-08T04:19:49.691Z,0.00
2022-11-08T04:20:49.644Z,0.00
2022-11-08T04:21:49.595Z,0.00
2022-11-08T04:22:49.582Z,0.00
2022-11-08T04:23:49.505Z,0.00
2022-11-08T04:24:49.480Z,0.00
2022-11-08T04:25:49.411Z,0.00
2022-11-08T04:26:49.366Z,0.00
2022-11-08T04:27:49.311Z,0.00
2022-11-08T04:28:49.268Z,0.00
2022-11-08T04:29:49.220Z,0.00
2022-11-08T04:30:49.193Z,0.00
2022-11-08T04:31:49.125Z,0.00
2022-11-08T04:32:49.080Z,0.00
2022-11-08T04:33:49.062Z,0.00
2022-11-08T04:34:48.983Z,0.00
2022-11-08T04:35:48.936Z,0.00
2022-11-08T04:36:48.906Z,0.00
2022-11-08T04:37:48.846Z,0.00
2022-11-08T04:38:48.795Z,0.00
2022-11-08T04:39:48.751Z,0.00
2022-11-08T04:40:48.705Z,0.00
2022-11-08T04:41:48.656Z,0.00
2022-11-08T04:42:48.635Z,0.00
2022-11-08T04:43:48.558Z,0.00
2022-11-08T04:44:48.511Z,0.00
2022-11-08T04:45:48.465Z,0.00
2022-11-08T04:46:48.474Z,0.00
2022-11-08T04:47:48.637Z,0.00
2022-11-08T04:48:48.325Z,0.00
2022-11-08T04:49:48.277Z,0.00
2022-11-08T04:50:48.231Z,0.00
2022-11-08T04:51:48.178Z,0.00
2022-11-08T04:52:48.158Z,0.00
2022-11-08T04:53:48.090Z,0.00
2022-11-08T04:54:48.042Z,0.00
2022-11-08T04:55:47.993Z,0.00
2022-11-08T04:56:47.946Z,0.00
2022-11-08T04:57:47.912Z,0.00
2022-11-08T04:58:47.855Z,0.00
2022-11-08T04:59:47.806Z,0.00
2022-11-08T05:00:47.761Z,0.00
2022-11-08T05:01:47.837Z,0.00
2022-11-08T05:02:47.729Z,0.00
2022-11-08T05:03:47.639Z,0.00
2022-11-08T05:04:47.566Z,0.00
2022-11-08T05:05:47.522Z,0.00
2022-11-08T05:06:47.476Z,0.00
2022-11-08T05:07:47.424Z,0.00
2022-11-08T05:08:47.383Z,0.00
2022-11-08T05:09:47.352Z,0.00
2022-11-08T05:10:47.284Z,0.00
2022-11-08T05:11:47.245Z,0.00
2022-11-08T05:12:47.189Z,0.00
2022-11-08T05:13:47.152Z,0.00
2022-11-08T05:14:47.100Z,0.00
2022-11-08T05:15:47.108Z,0.00
2022-11-08T05:16:47.004Z,0.00
2022-11-08T05:17:46.955Z,0.00
2022-11-08T05:18:46.909Z,0.00
2022-11-08T05:19:46.863Z,0.00
2022-11-08T05:20:46.812Z,0.00
2022-11-08T05:21:46.898Z,0.00
2022-11-08T05:22:46.718Z,0.00
2022-11-08T05:23:46.672Z,0.00
2022-11-08T05:24:46.622Z,0.00
2022-11-08T05:25:46.574Z,0.00
2022-11-08T05:26:46.532Z,0.00
2022-11-08T05:27:46.503Z,0.00
2022-11-08T05:28:46.432Z,0.00
2022-11-08T05:29:46.390Z,0.00
2022-11-08T05:30:46.342Z,0.00
2022-11-08T05:31:46.319Z,0.00
2022-11-08T05:32:46.244Z,0.00
2022-11-08T05:33:46.195Z,0.00
2022-11-08T05:34:46.169Z,0.00
2022-11-08T05:35:46.099Z,0.00
2022-11-08T05:36:46.055Z,0.00
2022-11-08T05:37:46.005Z,0.00
2022-11-08T05:38:45.966Z,0.00
2022-11-08T05:39:45.910Z,0.00
2022-11-08T05:40:45.886Z,0.00
2022-11-08T05:41:45.843Z,0.00
2022-11-08T05:42:45.773Z,0.00
2022-11-08T05:43:45.728Z,0.00
2022-11-08T05:44:45.680Z,0.00
2022-11-08T05:45:45.625Z,0.00
2022-11-08T05:46:45.600Z,0.00
2022-11-08T05:47:45.531Z,0.00
2022-11-08T05:48:45.513Z,4.00
2022-11-08T05:49:45.439Z,4.00
2022-11-08T05:50:45.390Z,0.00
2022-11-08T05:51:45.368Z,4.00
2022-11-08T05:52:45.294Z,4.00
2022-11-08T05:53:45.249Z,4.00
2022-11-08T05:54:45.202Z,4.00
2022-11-08T05:55:45.179Z,4.00
2022-11-08T05:56:45.106Z,8.00
2022-11-08T05:57:45.063Z,12.00
2022-11-08T05:58:45.009Z,12.00
2022-11-08T05:59:45.002Z,16.00
2022-11-08T06:03:47.355Z,32.00
2022-11-08T06:04:47.315Z,36.00
2022-11-08T06:05:47.236Z,44.00
2022-11-08T06:06:47.180Z,52.00
2022-11-08T06:07:47.132Z,60.00
2022-11-08T06:08:50.279Z,68.00
2022-11-08T06:09:47.035Z,76.00
2022-11-08T06:10:47.017Z,92.00
2022-11-08T06:11:46.971Z,104.00
2022-11-08T06:12:46.892Z,124.00
2022-11-08T06:13:46.846Z,140.00
2022-11-08T06:14:46.799Z,168.00
2022-11-08T06:15:46.750Z,196.00
2022-11-08T06:16:46.703Z,228.00
2022-11-08T06:17:46.672Z,260.00
2022-11-08T06:18:46.605Z,296.00
2022-11-08T06:19:46.565Z,328.00
2022-11-08T06:20:46.513Z,356.00
2022-11-08T06:21:46.464Z,384.00
2022-11-08T06:22:46.418Z,404.00
2022-11-08T06:23:46.392Z,424.00
2022-11-08T06:24:46.324Z,440.00
2022-11-08T06:25:47.634Z,464.00
2022-11-08T06:26:46.258Z,496.00
2022-11-08T06:27:46.181Z,532.00
2022-11-08T06:28:46.167Z,568.00
2022-11-08T06:29:46.086Z,608.00
2022-11-08T06:30:46.038Z,648.00
2022-11-08T06:31:46.015Z,696.00
2022-11-08T06:32:45.943Z,740.00
2022-11-08T06:33:45.896Z,784.00
2022-11-08T06:34:45.861Z,848.00
2022-11-08T06:35:45.800Z,920.00
2022-11-08T06:36:45.760Z,996.00
2022-11-08T06:37:45.715Z,1068.00
2022-11-08T06:38:45.661Z,1120.00
2022-11-08T06:39:45.641Z,1176.00
2022-11-08T06:40:45.569Z,1228.00
2022-11-08T06:41:45.542Z,1284.00
2022-11-08T06:42:45.475Z,1352.00
2022-11-08T06:43:45.429Z,1432.00
2022-11-08T06:44:45.382Z,1528.00
2022-11-08T06:45:45.343Z,1640.00
2022-11-08T06:46:45.283Z,1772.00
2022-11-08T06:47:45.266Z,1912.00
2022-11-08T06:48:45.194Z,2032.00
2022-11-08T06:49:45.144Z,2128.00
2022-11-08T06:50:45.122Z,2200.00
2022-11-08T06:51:45.070Z,2276.00
2022-11-08T06:52:45.002Z,2360.00
2022-11-08T06:53:44.952Z,2444.00
2022-11-08T06:54:44.929Z,2512.00
2022-11-08T06:55:44.859Z,2580.00
2022-11-08T06:56:44.811Z,2664.00
2022-11-08T06:57:44.764Z,2772.00
2022-11-08T06:58:44.726Z,2900.00
2022-11-08T06:59:44.671Z,3028.00
2022-11-08T07:00:44.649Z,3132.00
2022-11-08T07:01:45.810Z,3228.00
2022-11-08T07:02:44.733Z,3320.00
2022-11-08T07:03:44.484Z,3396.00
2022-11-08T07:04:44.457Z,3440.00
2022-11-08T07:05:44.392Z,3496.00
2022-11-08T07:06:44.347Z,3556.00
2022-11-08T07:07:44.298Z,3640.00
2022-11-08T07:08:44.248Z,3772.00
2022-11-08T07:09:44.202Z,3972.00
2022-11-08T07:10:44.195Z,4200.00
2022-11-08T07:11:44.107Z,4404.00
2022-11-08T07:12:44.060Z,4600.00
2022-11-08T07:13:44.012Z,4816.00
2022-11-08T07:14:44.059Z,5040.00
2022-11-08T07:15:43.919Z,5200.00
2022-11-08T07:16:43.873Z,5268.00
2022-11-08T07:17:43.825Z,5284.00
2022-11-08T07:18:43.858Z,5232.00
2022-11-08T07:19:43.733Z,5148.00
2022-11-08T07:20:43.713Z,5032.00
2022-11-08T07:21:43.642Z,4912.00
2022-11-08T07:22:43.621Z,4812.00
2022-11-08T07:23:43.547Z,4720.00
2022-11-08T07:24:43.522Z,4652.00
2022-11-08T07:25:43.459Z,4632.00
2022-11-08T07:26:43.430Z,4644.00
2022-11-08T07:27:43.357Z,4688.00
2022-11-08T07:28:43.313Z,4752.00
2022-11-08T07:29:43.265Z,4832.00
2022-11-08T07:30:43.249Z,4912.00
2022-11-08T07:31:43.202Z,5004.00
2022-11-08T07:32:43.124Z,5088.00
2022-11-08T07:33:43.088Z,5160.00
2022-11-08T07:34:43.050Z,5224.00
2022-11-08T07:35:42.990Z,5300.00
2022-11-08T07:36:42.941Z,5376.00
2022-11-08T07:37:42.897Z,5444.00
2022-11-08T07:38:42.853Z,5516.00
2022-11-08T07:39:42.800Z,5588.00
2022-11-08T07:40:42.802Z,5656.00
2022-11-08T07:41:42.711Z,5704.00
2022-11-08T07:43:09.929Z,5728.00
2022-11-08T07:43:42.617Z,5752.00
2022-11-08T07:44:42.573Z,5788.00
2022-11-08T07:45:42.524Z,5852.00
2022-11-08T07:46:42.555Z,5948.00
2022-11-08T07:47:42.433Z,6024.00
2022-11-08T07:48:42.390Z,6104.00
2022-11-08T07:49:42.345Z,6184.00
2022-11-08T07:50:42.529Z,6268.00
2022-11-08T07:51:42.252Z,6332.00
2022-11-08T07:52:42.219Z,6384.00
2022-11-08T07:53:42.165Z,6452.00
2022-11-08T07:54:42.116Z,6528.00
2022-11-08T07:55:42.064Z,6604.00
2022-11-08T07:56:42.028Z,6644.00
2022-11-08T07:57:41.978Z,6636.00
2022-11-08T07:58:41.948Z,6564.00
2022-11-08T07:59:41.881Z,6460.00
2022-11-08T08:00:41.841Z,6352.00
2022-11-08T08:01:41.850Z,6248.00
2022-11-08T08:02:41.780Z,6160.00
2022-11-08T08:03:41.714Z,6120.00
2022-11-08T08:04:41.678Z,6136.00
2022-11-08T08:05:41.607Z,6184.00
2022-11-08T08:06:41.562Z,6308.00
2022-11-08T08:07:41.520Z,6528.00
2022-11-08T08:08:41.474Z,6868.00
2022-11-08T08:09:41.428Z,7352.00
2022-11-08T08:10:41.420Z,7884.00
2022-11-08T08:11:41.340Z,8504.00
2022-11-08T08:12:41.298Z,9216.00
2022-11-08T08:13:41.250Z,9928.00
2022-11-08T08:14:41.201Z,10540.00
2022-11-08T08:15:41.177Z,11100.00
2022-11-08T08:16:41.104Z,11248.00
2022-11-08T08:17:41.062Z,11320.00
2022-11-08T08:18:41.041Z,11272.00
2022-11-08T08:19:40.973Z,11084.00
2022-11-08T08:20:40.925Z,10848.00
2022-11-08T08:21:40.882Z,10740.00
2022-11-08T08:22:40.835Z,10512.00
2022-11-08T08:23:40.814Z,10500.00
2022-11-08T08:24:40.744Z,10516.00
2022-11-08T08:25:40.703Z,10488.00
2022-11-08T08:26:40.653Z,10504.00
2022-11-08T08:27:40.607Z,10476.00
2022-11-08T08:28:40.588Z,10468.00
2022-11-08T08:29:40.513Z,10512.00
2022-11-08T08:30:40.469Z,10516.00
2022-11-08T08:31:40.529Z,10512.00
2022-11-08T08:32:40.379Z,10540.00
2022-11-08T08:33:40.720Z,10568.00
2022-11-08T08:34:40.286Z,10568.00
2022-11-08T08:35:40.247Z,10572.00
2022-11-08T08:36:40.197Z,10568.00
2022-11-08T08:37:40.179Z,10564.00
2022-11-08T08:38:44.313Z,10580.00
2022-11-08T08:39:40.064Z,10584.00
2022-11-08T08:40:40.020Z,10588.00
2022-11-08T08:41:39.980Z,10636.00
2022-11-08T08:42:39.930Z,10608.00
2022-11-08T08:43:39.906Z,10548.00
2022-11-08T08:44:39.839Z,10512.00
2022-11-08T08:45:39.799Z,10420.00
2022-11-08T08:46:39.786Z,10332.00
2022-11-08T08:47:39.724Z,10220.00
2022-11-08T08:48:39.660Z,10112.00
2022-11-08T08:49:39.615Z,10040.00
2022-11-08T08:50:39.577Z,10016.00
2022-11-08T08:51:39.526Z,9968.00
2022-11-08T08:52:39.514Z,9960.00
2022-11-08T08:53:39.437Z,9856.00
2022-11-08T08:54:39.397Z,9660.00
2022-11-08T08:55:39.348Z,9556.00
2022-11-08T08:56:39.305Z,9460.00
2022-11-08T08:57:39.298Z,9328.00
2022-11-08T08:58:39.670Z,9156.00
2022-11-08T09:01:39.130Z,8688.00
2022-11-08T09:02:41.434Z,8544.00
2022-11-08T09:03:39.009Z,8496.00
2022-11-08T09:04:38.950Z,8508.00
2022-11-08T09:05:38.904Z,8580.00
2022-11-08T09:06:38.939Z,8684.00
2022-11-08T09:07:38.818Z,8776.00
2022-11-08T09:08:38.776Z,8936.00
2022-11-08T09:09:38.755Z,9200.00
2022-11-08T09:10:38.686Z,9540.00
2022-11-08T09:11:38.646Z,10080.00
2022-11-08T09:12:38.594Z,11216.00
2022-11-08T09:13:38.549Z,12836.00
2022-11-08T09:14:38.509Z,14608.00
2022-11-08T09:15:38.479Z,20064.00
2022-11-08T09:16:38.418Z,30336.00
2022-11-08T09:17:38.375Z,33312.00
2022-11-08T09:18:38.408Z,26592.00
2022-11-08T09:19:38.286Z,19168.00
2022-11-08T09:20:38.249Z,15660.00
2022-11-08T09:21:38.285Z,17056.00
2022-11-08T09:22:38.161Z,15840.00
2022-11-08T09:23:38.117Z,15276.00
2022-11-08T09:24:38.089Z,35904.00
2022-11-08T09:25:38.029Z,21312.00
2022-11-08T09:26:37.991Z,18240.00
2022-11-08T09:27:37.944Z,19712.00
2022-11-08T09:28:37.901Z,21568.00
2022-11-08T09:29:37.861Z,31104.00
2022-11-08T09:30:37.837Z,31264.00
2022-11-08T09:31:37.773Z,30848.00
2022-11-08T09:32:59.740Z,18720.00
2022-11-08T09:33:37.686Z,17920.00
2022-11-08T09:34:37.652Z,18496.00
2022-11-08T09:35:37.610Z,22304.00
2022-11-08T09:36:37.767Z,29376.00
2022-11-08T09:37:37.524Z,23712.00
2022-11-08T09:38:37.480Z,26496.00
2022-11-08T09:39:37.447Z,23456.00
2022-11-08T09:40:37.424Z,26016.00
2022-11-08T09:41:37.356Z,29760.00
2022-11-08T09:42:37.354Z,27232.00
2022-11-08T09:43:37.297Z,22368.00
2022-11-08T09:44:37.337Z,22080.00
2022-11-08T09:45:37.194Z,21088.00
2022-11-08T09:46:37.149Z,21376.00
2022-11-08T09:47:37.110Z,21120.00
2022-11-08T09:48:37.069Z,22048.00
2022-11-08T09:49:37.027Z,21120.00
2022-11-08T09:50:37.011Z,21696.00
2022-11-08T09:51:37.067Z,22432.00
2022-11-08T09:52:36.907Z,22944.00
2022-11-08T09:53:36.866Z,23552.00
2022-11-08T09:54:36.827Z,25472.00
2022-11-08T09:55:36.786Z,31648.00
2022-11-08T09:56:36.760Z,38656.00
2022-11-08T09:57:36.739Z,28480.00
2022-11-08T09:58:36.661Z,26240.00
2022-11-08T09:59:36.620Z,25120.00
2022-11-08T10:00:36.581Z,28192.00
2022-11-08T10:01:36.615Z,24640.00
2022-11-08T10:02:36.498Z,23872.00
2022-11-08T10:03:36.490Z,36736.00
2022-11-08T10:04:36.422Z,27648.00
2022-11-08T10:05:36.379Z,41152.00
2022-11-08T10:06:36.362Z,20064.00
2022-11-08T10:07:36.297Z,26208.00
2022-11-08T10:08:36.282Z,20416.00
2022-11-08T10:09:36.221Z,18720.00
2022-11-08T10:10:36.181Z,17504.00
2022-11-08T10:11:36.139Z,16896.00
2022-11-08T10:12:36.104Z,17056.00
2022-11-08T10:13:36.061Z,17248.00
2022-11-08T10:14:39.925Z,17632.00
2022-11-08T10:15:35.981Z,17504.00
2022-11-08T10:16:35.946Z,17728.00
2022-11-08T10:17:35.907Z,18016.00
2022-11-08T10:18:35.865Z,18336.00
2022-11-08T10:19:35.827Z,18624.00
2022-11-08T10:20:35.807Z,18720.00
2022-11-08T10:21:35.745Z,18784.00
2022-11-08T10:22:35.704Z,18816.00
2022-11-08T10:23:35.665Z,18720.00
2022-11-08T10:24:35.621Z,18528.00
2022-11-08T10:25:35.580Z,18304.00
2022-11-08T10:26:35.556Z,18144.00
2022-11-08T10:27:35.504Z,17952.00
2022-11-08T10:28:35.456Z,17632.00
2022-11-08T10:29:35.425Z,17312.00
2022-11-08T10:30:35.381Z,17024.00
2022-11-08T10:31:35.343Z,16604.00
2022-11-08T10:32:35.326Z,16276.00
2022-11-08T10:33:35.259Z,15864.00
2022-11-08T10:34:35.214Z,15484.00
2022-11-08T10:35:35.174Z,15100.00
2022-11-08T10:36:35.133Z,14812.00
2022-11-08T10:37:35.091Z,14660.00
2022-11-08T10:38:35.090Z,14688.00
2022-11-08T10:39:35.012Z,14904.00
2022-11-08T10:40:34.966Z,15188.00
2022-11-08T10:41:34.930Z,15496.00
2022-11-08T10:42:34.889Z,15692.00
2022-11-08T10:43:34.845Z,15772.00
2022-11-08T10:44:34.849Z,15860.00
2022-11-08T10:45:34.765Z,15920.00
2022-11-08T10:46:34.719Z,15924.00
2022-11-08T10:47:34.688Z,15904.00
2022-11-08T10:48:34.644Z,15804.00
2022-11-08T10:49:34.597Z,15688.00
2022-11-08T10:50:34.582Z,15576.00
2022-11-08T10:51:34.516Z,15468.00
2022-11-08T10:52:34.475Z,15364.00
2022-11-08T10:53:34.439Z,15308.00
2022-11-08T10:54:34.407Z,15160.00
2022-11-08T10:55:34.351Z,14964.00
2022-11-08T10:56:36.929Z,14872.00
2022-11-08T10:57:34.268Z,14780.00
2022-11-08T10:58:34.228Z,14776.00
2022-11-08T10:59:34.189Z,14840.00
2022-11-08T11:00:34.165Z,14972.00
2022-11-08T11:01:34.152Z,15208.00
2022-11-08T11:02:34.066Z,15468.00
2022-11-08T11:03:34.024Z,15824.00
2022-11-08T11:04:33.975Z,16172.00
2022-11-08T11:05:33.963Z,16396.00
2022-11-08T11:06:33.977Z,16564.00
2022-11-08T11:07:33.852Z,16740.00
2022-11-08T11:08:33.821Z,17024.00
2022-11-08T11:09:33.770Z,16692.00
2022-11-08T11:10:33.730Z,16508.00
2022-11-08T11:11:33.715Z,16372.00
2022-11-08T11:12:33.644Z,16248.00
2022-11-08T11:13:33.601Z,16204.00
2022-11-08T11:14:33.567Z,16180.00
2022-11-08T11:15:33.518Z,16172.00
2022-11-08T11:16:33.477Z,16220.00
2022-11-08T11:17:35.745Z,16260.00
2022-11-08T11:18:33.401Z,16180.00
2022-11-08T11:19:33.352Z,16036.00
2022-11-08T11:20:33.311Z,15788.00
2022-11-08T11:21:33.295Z,15540.00
2022-11-08T11:22:33.230Z,15524.00
2022-11-08T11:23:33.185Z,15784.00
2022-11-08T11:24:33.143Z,16144.00
2022-11-08T11:25:33.104Z,16316.00
2022-11-08T11:26:33.060Z,16488.00
2022-11-08T11:27:33.040Z,16896.00
2022-11-08T11:28:32.977Z,17088.00
2022-11-08T11:29:32.958Z,17216.00
2022-11-08T11:30:32.895Z,17632.00
2022-11-08T11:31:32.877Z,18208.00
2022-11-08T11:32:32.809Z,19104.00
2022-11-08T11:33:32.792Z,20320.00
2022-11-08T11:34:32.725Z,21600.00
2022-11-08T11:35:32.695Z,22848.00
2022-11-08T11:36:32.639Z,23968.00
2022-11-08T11:37:32.607Z,24896.00
2022-11-08T11:38:32.561Z,25984.00
2022-11-08T11:39:32.521Z,26656.00
2022-11-08T11:40:32.476Z,26752.00
2022-11-08T11:41:32.608Z,25728.00
2022-11-08T11:42:45.846Z,25344.00
2022-11-08T11:43:32.350Z,25216.00
2022-11-08T11:44:32.611Z,25120.00
2022-11-08T11:45:32.266Z,25152.00
2022-11-08T11:46:33.014Z,25504.00
2022-11-08T11:47:32.181Z,26080.00
2022-11-08T11:48:32.145Z,26528.00
2022-11-08T11:49:32.108Z,28000.00
2022-11-08T11:50:32.109Z,27296.00
2022-11-08T11:51:32.059Z,27040.00
2022-11-08T11:52:32.013Z,27424.00
2022-11-08T11:53:31.940Z,27776.00
2022-11-08T11:54:31.894Z,28384.00
2022-11-08T11:55:31.852Z,31456.00
2022-11-08T11:56:31.810Z,36832.00
2022-11-08T11:57:31.772Z,71168.00
2022-11-08T11:58:31.759Z,72000.00
2022-11-08T11:59:31.687Z,79616.00
2022-11-08T12:00:31.649Z,71616.00
2022-11-08T12:01:31.626Z,55584.00
2022-11-08T12:02:31.588Z,78784.00
2022-11-08T12:03:31.554Z,73216.00
2022-11-08T12:04:31.489Z,72320.00
2022-11-08T12:05:31.453Z,69760.00
2022-11-08T12:06:31.438Z,63200.00
2022-11-08T12:07:31.376Z,63840.00
2022-11-08T12:08:31.359Z,62624.00
2022-11-08T12:09:31.300Z,61952.00
2022-11-08T12:10:31.265Z,62464.00
2022-11-08T12:11:31.229Z,59200.00
2022-11-08T12:12:31.192Z,58560.00
2022-11-08T12:13:31.157Z,57088.00
2022-11-08T12:14:31.137Z,56032.00
2022-11-08T12:15:31.109Z,57248.00
2022-11-08T12:16:31.053Z,56928.00
2022-11-08T12:17:31.017Z,56864.00
2022-11-08T12:18:42.808Z,57920.00
2022-11-08T12:19:30.947Z,57856.00
2022-11-08T12:20:30.941Z,57312.00
2022-11-08T12:21:30.901Z,57600.00
2022-11-08T12:22:30.871Z,57312.00
2022-11-08T12:23:30.811Z,51712.00
2022-11-08T12:24:30.777Z,58304.00
2022-11-08T12:25:30.768Z,55552.00
2022-11-08T12:26:30.710Z,56640.00
2022-11-08T12:27:30.678Z,55200.00
2022-11-08T12:28:30.645Z,56832.00
2022-11-08T12:29:30.613Z,58048.00
2022-11-08T12:30:30.583Z,58272.00
2022-11-08T12:31:30.567Z,60864.00
2022-11-08T12:32:30.540Z,60864.00
2022-11-08T12:33:30.488Z,60128.00
2022-11-08T12:34:30.452Z,60160.00
2022-11-08T12:35:30.439Z,58016.00
2022-11-08T12:36:30.384Z,54464.00